sensor_id;sensor_type;location;lat;lon;timestamp;temperature;humidity
46590;DHT22;32313;48.722;9.362;2022-12-18T00:02:06;-8.80;99.90
46590;DHT22;32313;48.722;9.362;2022-12-18T00:04:32;-8.80;99.90
46590;DHT22;32313;48.722;9.362;2022-12-18T00:06:57;-8.80;99.90
46590;DHT22;32313;48.722;9.362;2022-12-18T00:09:23;-8.80;99.90
46590;DHT22;32313;48.722;9.362;2022-12-18T00:11:49;-8.80;99.90
46590;DHT22;32313;48.722;9.362;2022-12-18T00:14:15;-8.80;99.90
46590;DHT22;32313;48.722;9.362;2022-12-18T00:16:44;-8.80;99.90
46590;DHT22;32313;48.722;9.362;2022-12-18T00:19:11;-8.80;99.90
46590;DHT22;32313;48.722;9.362;2022-12-18T00:21:41;-8.80;99.90
46590;DHT22;32313;48.722;9.362;2022-12-18T00:24:08;-8.80;99.90
46590;DHT22;32313;48.722;9.362;2022-12-18T00:26:36;-8.80;99.90
46590;DHT22;32313;48.722;9.362;2022-12-18T00:29:13;-8.80;99.90
46590;DHT22;32313;48.722;9.362;2022-12-18T00:31:43;-8.80;99.90
46590;DHT22;32313;48.722;9.362;2022-12-18T00:34:11;-8.80;99.90
46590;DHT22;32313;48.722;9.362;2022-12-18T00:36:39;-8.80;99.90
46590;DHT22;32313;48.722;9.362;2022-12-18T00:39:06;-8.90;99.90
46590;DHT22;32313;48.722;9.362;2022-12-18T00:41:32;-8.90;99.90
46590;DHT22;32313;48.722;9.362;2022-12-18T00:44:17;-8.90;99.90
46590;DHT22;32313;48.722;9.362;2022-12-18T00:46:45;-8.90;99.90
46590;DHT22;32313;48.722;9.362;2022-12-18T00:49:16;-8.90;99.90
46590;DHT22;32313;48.722;9.362;2022-12-18T00:51:41;-8.90;99.90
46590;DHT22;32313;48.722;9.362;2022-12-18T00:54:07;-8.90;99.90
46590;DHT22;32313;48.722;9.362;2022-12-18T00:56:36;-9.00;99.90
46590;DHT22;32313;48.722;9.362;2022-12-18T00:59:02;-9.00;99.90
46590;DHT22;32313;48.722;9.362;2022-12-18T01:01:27;-9.00;99.90
46590;DHT22;32313;48.722;9.362;2022-12-18T01:03:53;-9.00;99.90
46590;DHT22;32313;48.722;9.362;2022-12-18T01:06:22;-9.00;99.90
46590;DHT22;32313;48.722;9.362;2022-12-18T01:08:48;-9.00;99.90
46590;DHT22;32313;48.722;9.362;2022-12-18T01:11:17;-9.00;99.90
46590;DHT22;32313;48.722;9.362;2022-12-18T01:13:43;-9.00;99.90
46590;DHT22;32313;48.722;9.362;2022-12-18T01:16:11;-9.00;99.90
46590;DHT22;32313;48.722;9.362;2022-12-18T01:18:37;-9.00;99.90
46590;DHT22;32313;48.722;9.362;2022-12-18T01:21:12;-8.90;99.90
46590;DHT22;32313;48.722;9.362;2022-12-18T01:23:37;-8.90;99.90
46590;DHT22;32313;48.722;9.362;2022-12-18T01:26:12;-9.00;99.90
46590;DHT22;32313;48.722;9.362;2022-12-18T01:28:39;-8.90;99.90
46590;DHT22;32313;48.722;9.362;2022-12-18T01:31:18;-9.00;99.90
46590;DHT22;32313;48.722;9.362;2022-12-18T01:33:50;-9.00;99.90
46590;DHT22;32313;48.722;9.362;2022-12-18T01:38:43;-9.10;99.90
46590;DHT22;32313;48.722;9.362;2022-12-18T01:41:09;-9.20;99.90
46590;DHT22;32313;48.722;9.362;2022-12-18T01:43:42;-9.20;99.90
46590;DHT22;32313;48.722;9.362;2022-12-18T01:46:08;-9.20;99.90
46590;DHT22;32313;48.722;9.362;2022-12-18T01:48:34;-9.30;99.90
46590;DHT22;32313;48.722;9.362;2022-12-18T01:51:00;-9.30;99.90
46590;DHT22;32313;48.722;9.362;2022-12-18T01:53:26;-9.30;99.90
46590;DHT22;32313;48.722;9.362;2022-12-18T01:55:55;-9.30;99.90
46590;DHT22;32313;48.722;9.362;2022-12-18T01:58:32;-9.30;99.90
46590;DHT22;32313;48.722;9.362;2022-12-18T02:01:02;-9.30;99.90
46590;DHT22;32313;48.722;9.362;2022-12-18T02:03:27;-9.40;99.90
46590;DHT22;32313;48.722;9.362;2022-12-18T02:09:15;-9.50;99.90
46590;DHT22;32313;48.722;9.362;2022-12-18T02:15:02;-9.50;99.90
46590;DHT22;32313;48.722;9.362;2022-12-18T02:18:05;-9.50;99.90
46590;DHT22;32313;48.722;9.362;2022-12-18T02:20:52;-9.50;99.90
46590;DHT22;32313;48.722;9.362;2022-12-18T02:26:07;-9.50;99.90
46590;DHT22;32313;48.722;9.362;2022-12-18T02:29:02;-9.40;99.90
46590;DHT22;32313;48.722;9.362;2022-12-18T02:31:36;-9.40;99.90
46590;DHT22;32313;48.722;9.362;2022-12-18T02:34:04;-9.50;99.90
46590;DHT22;32313;48.722;9.362;2022-12-18T02:36:40;-9.60;99.90
46590;DHT22;32313;48.722;9.362;2022-12-18T02:39:07;-9.70;99.90
46590;DHT22;32313;48.722;9.362;2022-12-18T02:41:36;-9.70;99.90
46590;DHT22;32313;48.722;9.362;2022-12-18T02:44:08;-9.70;99.90
46590;DHT22;32313;48.722;9.362;2022-12-18T02:46:46;-9.70;99.90
46590;DHT22;32313;48.722;9.362;2022-12-18T02:54:48;-9.80;99.90
46590;DHT22;32313;48.722;9.362;2022-12-18T03:00:03;-9.90;99.90
46590;DHT22;32313;48.722;9.362;2022-12-18T03:05:20;-10.00;99.90
46590;DHT22;32313;48.722;9.362;2022-12-18T03:07:55;-10.10;99.90
46590;DHT22;32313;48.722;9.362;2022-12-18T03:10:28;-10.20;99.90
46590;DHT22;32313;48.722;9.362;2022-12-18T03:13:24;-10.30;99.90
46590;DHT22;32313;48.722;9.362;2022-12-18T03:15:55;-10.30;99.90
46590;DHT22;32313;48.722;9.362;2022-12-18T03:18:46;-10.40;99.90
46590;DHT22;32313;48.722;9.362;2022-12-18T03:21:13;-10.40;99.90
46590;DHT22;32313;48.722;9.362;2022-12-18T03:23:44;-10.40;99.90
46590;DHT22;32313;48.722;9.362;2022-12-18T03:26:17;-10.50;99.90
46590;DHT22;32313;48.722;9.362;2022-12-18T03:28:54;-10.50;99.90
46590;DHT22;32313;48.722;9.362;2022-12-18T03:31:23;-10.60;99.90
46590;DHT22;32313;48.722;9.362;2022-12-18T03:33:59;-10.70;99.90
46590;DHT22;32313;48.722;9.362;2022-12-18T03:36:36;-10.70;99.90
46590;DHT22;32313;48.722;9.362;2022-12-18T03:39:02;-10.80;99.90
46590;DHT22;32313;48.722;9.362;2022-12-18T03:42:16;-10.90;99.90
46590;DHT22;32313;48.722;9.362;2022-12-18T03:50:18;-11.10;99.90
46590;DHT22;32313;48.722;9.362;2022-12-18T03:55:41;-11.20;99.90
46590;DHT22;32313;48.722;9.362;2022-12-18T03:58:09;-11.30;99.90
46590;DHT22;32313;48.722;9.362;2022-12-18T04:00:52;-11.30;99.90
46590;DHT22;32313;48.722;9.362;2022-12-18T04:03:20;-11.30;99.90
46590;DHT22;32313;48.722;9.362;2022-12-18T04:05:52;-11.30;99.90
46590;DHT22;32313;48.722;9.362;2022-12-18T04:08:21;-11.40;99.90
46590;DHT22;32313;48.722;9.362;2022-12-18T04:10:56;-11.40;99.90
46590;DHT22;32313;48.722;9.362;2022-12-18T04:13:24;-11.40;99.90
46590;DHT22;32313;48.722;9.362;2022-12-18T04:15:51;-11.40;99.90
46590;DHT22;32313;48.722;9.362;2022-12-18T04:18:18;-11.50;99.90
46590;DHT22;32313;48.722;9.362;2022-12-18T04:20:45;-11.60;99.90
46590;DHT22;32313;48.722;9.362;2022-12-18T04:23:11;-11.60;99.90
46590;DHT22;32313;48.722;9.362;2022-12-18T04:25:38;-11.70;99.90
46590;DHT22;32313;48.722;9.362;2022-12-18T04:28:07;-11.80;99.90
46590;DHT22;32313;48.722;9.362;2022-12-18T04:30:34;-11.80;99.90
46590;DHT22;32313;48.722;9.362;2022-12-18T04:33:00;-11.80;99.90
46590;DHT22;32313;48.722;9.362;2022-12-18T04:35:28;-11.80;99.90
46590;DHT22;32313;48.722;9.362;2022-12-18T04:37:53;-11.80;99.90
46590;DHT22;32313;48.722;9.362;2022-12-18T04:40:19;-11.80;99.90
46590;DHT22;32313;48.722;9.362;2022-12-18T04:42:47;-11.80;99.90
46590;DHT22;32313;48.722;9.362;2022-12-18T04:45:13;-11.80;99.90
46590;DHT22;32313;48.722;9.362;2022-12-18T04:47:38;-11.80;99.90
46590;DHT22;32313;48.722;9.362;2022-12-18T04:50:04;-11.90;99.90
46590;DHT22;32313;48.722;9.362;2022-12-18T04:52:33;-12.00;99.90
46590;DHT22;32313;48.722;9.362;2022-12-18T04:54:59;-12.10;99.90
46590;DHT22;32313;48.722;9.362;2022-12-18T04:57:25;-12.10;99.90
46590;DHT22;32313;48.722;9.362;2022-12-18T04:59:51;-12.10;99.90
46590;DHT22;32313;48.722;9.362;2022-12-18T05:02:17;-12.10;99.90
46590;DHT22;32313;48.722;9.362;2022-12-18T05:04:42;-12.20;99.90
46590;DHT22;32313;48.722;9.362;2022-12-18T05:07:08;-12.20;99.90
46590;DHT22;32313;48.722;9.362;2022-12-18T05:09:34;-12.30;99.90
46590;DHT22;32313;48.722;9.362;2022-12-18T05:12:00;-12.30;99.90
46590;DHT22;32313;48.722;9.362;2022-12-18T05:14:25;-12.20;99.90
46590;DHT22;32313;48.722;9.362;2022-12-18T05:16:53;-12.20;99.90
46590;DHT22;32313;48.722;9.362;2022-12-18T05:19:18;-12.20;99.90
46590;DHT22;32313;48.722;9.362;2022-12-18T05:21:44;-12.30;99.90
46590;DHT22;32313;48.722;9.362;2022-12-18T05:24:10;-12.30;99.90
46590;DHT22;32313;48.722;9.362;2022-12-18T05:26:35;-12.30;99.90
46590;DHT22;32313;48.722;9.362;2022-12-18T05:29:01;-12.30;99.90
46590;DHT22;32313;48.722;9.362;2022-12-18T05:31:27;-12.30;99.90
46590;DHT22;32313;48.722;9.362;2022-12-18T05:33:53;-12.20;99.90
46590;DHT22;32313;48.722;9.362;2022-12-18T05:36:19;-12.20;99.90
46590;DHT22;32313;48.722;9.362;2022-12-18T05:38:45;-12.10;99.90
46590;DHT22;32313;48.722;9.362;2022-12-18T05:41:11;-12.10;99.90
46590;DHT22;32313;48.722;9.362;2022-12-18T05:43:38;-12.20;99.90
46590;DHT22;32313;48.722;9.362;2022-12-18T05:46:12;-12.20;99.90
46590;DHT22;32313;48.722;9.362;2022-12-18T05:48:38;-12.20;99.90
46590;DHT22;32313;48.722;9.362;2022-12-18T05:51:10;-12.30;99.90
46590;DHT22;32313;48.722;9.362;2022-12-18T05:53:36;-12.40;99.90
46590;DHT22;32313;48.722;9.362;2022-12-18T05:56:04;-12.50;99.90
46590;DHT22;32313;48.722;9.362;2022-12-18T05:58:31;-12.60;99.90
46590;DHT22;32313;48.722;9.362;2022-12-18T06:00:57;-12.60;99.90
46590;DHT22;32313;48.722;9.362;2022-12-18T06:03:23;-12.70;99.90
46590;DHT22;32313;48.722;9.362;2022-12-18T06:05:49;-12.70;99.90
46590;DHT22;32313;48.722;9.362;2022-12-18T06:08:15;-12.70;99.90
46590;DHT22;32313;48.722;9.362;2022-12-18T06:10:41;-12.80;99.90
46590;DHT22;32313;48.722;9.362;2022-12-18T06:13:07;-12.90;99.90
46590;DHT22;32313;48.722;9.362;2022-12-18T06:15:36;-12.90;99.90
46590;DHT22;32313;48.722;9.362;2022-12-18T06:18:02;-13.00;99.90
46590;DHT22;32313;48.722;9.362;2022-12-18T06:20:31;-13.00;99.90
46590;DHT22;32313;48.722;9.362;2022-12-18T06:22:57;-13.10;99.90
46590;DHT22;32313;48.722;9.362;2022-12-18T06:25:23;-13.20;99.90
46590;DHT22;32313;48.722;9.362;2022-12-18T06:27:48;-13.20;99.90
46590;DHT22;32313;48.722;9.362;2022-12-18T06:30:14;-13.20;99.90
46590;DHT22;32313;48.722;9.362;2022-12-18T06:32:40;-13.20;99.90
46590;DHT22;32313;48.722;9.362;2022-12-18T06:35:06;-13.30;99.90
46590;DHT22;32313;48.722;9.362;2022-12-18T06:37:32;-13.30;99.90
46590;DHT22;32313;48.722;9.362;2022-12-18T06:39:58;-13.20;99.90
46590;DHT22;32313;48.722;9.362;2022-12-18T06:42:24;-13.20;99.90
46590;DHT22;32313;48.722;9.362;2022-12-18T06:44:50;-13.20;99.90
46590;DHT22;32313;48.722;9.362;2022-12-18T06:47:16;-13.20;99.90
46590;DHT22;32313;48.722;9.362;2022-12-18T06:49:41;-13.20;99.90
46590;DHT22;32313;48.722;9.362;2022-12-18T06:52:08;-13.30;99.90
46590;DHT22;32313;48.722;9.362;2022-12-18T06:54:34;-13.30;99.90
46590;DHT22;32313;48.722;9.362;2022-12-18T06:57:00;-13.40;99.90
46590;DHT22;32313;48.722;9.362;2022-12-18T06:59:25;-13.50;99.90
46590;DHT22;32313;48.722;9.362;2022-12-18T07:01:51;-13.60;99.90
46590;DHT22;32313;48.722;9.362;2022-12-18T07:04:17;-13.60;99.90
46590;DHT22;32313;48.722;9.362;2022-12-18T07:06:43;-13.60;99.90
46590;DHT22;32313;48.722;9.362;2022-12-18T07:09:08;-13.60;99.90
46590;DHT22;32313;48.722;9.362;2022-12-18T07:11:34;-13.60;99.90
46590;DHT22;32313;48.722;9.362;2022-12-18T07:14:00;-13.70;99.90
46590;DHT22;32313;48.722;9.362;2022-12-18T07:16:26;-13.70;99.90
46590;DHT22;32313;48.722;9.362;2022-12-18T07:18:56;-13.70;99.90
46590;DHT22;32313;48.722;9.362;2022-12-18T07:21:23;-13.80;99.90
46590;DHT22;32313;48.722;9.362;2022-12-18T07:23:49;-13.80;99.90
46590;DHT22;32313;48.722;9.362;2022-12-18T07:26:18;-13.80;99.90
46590;DHT22;32313;48.722;9.362;2022-12-18T07:28:43;-13.80;99.90
46590;DHT22;32313;48.722;9.362;2022-12-18T07:31:12;-13.70;99.90
46590;DHT22;32313;48.722;9.362;2022-12-18T07:33:38;-13.60;99.90
46590;DHT22;32313;48.722;9.362;2022-12-18T07:36:06;-13.60;99.90
46590;DHT22;32313;48.722;9.362;2022-12-18T07:38:33;-13.50;99.90
46590;DHT22;32313;48.722;9.362;2022-12-18T07:41:09;-13.40;99.90
46590;DHT22;32313;48.722;9.362;2022-12-18T07:43:36;-13.40;99.90
46590;DHT22;32313;48.722;9.362;2022-12-18T07:46:02;-13.40;99.90
46590;DHT22;32313;48.722;9.362;2022-12-18T07:48:28;-13.40;99.90
46590;DHT22;32313;48.722;9.362;2022-12-18T07:50:58;-13.40;99.90
46590;DHT22;32313;48.722;9.362;2022-12-18T07:53:24;-13.40;99.90
46590;DHT22;32313;48.722;9.362;2022-12-18T07:55:58;-13.40;99.90
46590;DHT22;32313;48.722;9.362;2022-12-18T07:58:24;-13.30;99.90
46590;DHT22;32313;48.722;9.362;2022-12-18T08:00:50;-13.30;99.90
46590;DHT22;32313;48.722;9.362;2022-12-18T08:03:18;-13.20;99.90
46590;DHT22;32313;48.722;9.362;2022-12-18T08:05:44;-13.20;99.90
46590;DHT22;32313;48.722;9.362;2022-12-18T08:08:09;-13.10;99.90
46590;DHT22;32313;48.722;9.362;2022-12-18T08:10:37;-13.10;99.90
46590;DHT22;32313;48.722;9.362;2022-12-18T08:13:03;-13.10;99.90
46590;DHT22;32313;48.722;9.362;2022-12-18T08:15:29;-13.00;99.90
46590;DHT22;32313;48.722;9.362;2022-12-18T08:17:58;-13.00;99.90
46590;DHT22;32313;48.722;9.362;2022-12-18T08:20:23;-12.90;99.90
46590;DHT22;32313;48.722;9.362;2022-12-18T08:22:49;-12.80;99.90
46590;DHT22;32313;48.722;9.362;2022-12-18T08:25:15;-12.80;99.90
46590;DHT22;32313;48.722;9.362;2022-12-18T08:27:40;-12.70;99.90
46590;DHT22;32313;48.722;9.362;2022-12-18T08:30:06;-12.70;99.90
46590;DHT22;32313;48.722;9.362;2022-12-18T08:32:32;-12.60;99.90
46590;DHT22;32313;48.722;9.362;2022-12-18T08:34:58;-12.50;99.90
46590;DHT22;32313;48.722;9.362;2022-12-18T08:37:24;-12.50;99.90
46590;DHT22;32313;48.722;9.362;2022-12-18T08:39:50;-12.50;99.90
46590;DHT22;32313;48.722;9.362;2022-12-18T08:42:16;-12.40;99.90
46590;DHT22;32313;48.722;9.362;2022-12-18T08:45:01;-12.40;99.90
46590;DHT22;32313;48.722;9.362;2022-12-18T08:47:26;-12.00;99.90
46590;DHT22;32313;48.722;9.362;2022-12-18T08:49:52;-11.40;99.90
46590;DHT22;32313;48.722;9.362;2022-12-18T08:52:18;-10.50;99.90
46590;DHT22;32313;48.722;9.362;2022-12-18T08:54:44;-9.50;99.90
46590;DHT22;32313;48.722;9.362;2022-12-18T08:57:09;-9.30;99.90
46590;DHT22;32313;48.722;9.362;2022-12-18T08:59:35;-9.90;99.90
46590;DHT22;32313;48.722;9.362;2022-12-18T09:02:01;-10.40;99.90
46590;DHT22;32313;48.722;9.362;2022-12-18T09:04:26;-10.60;99.90
46590;DHT22;32313;48.722;9.362;2022-12-18T09:06:55;-10.80;99.90
46590;DHT22;32313;48.722;9.362;2022-12-18T09:09:21;-10.90;99.90
46590;DHT22;32313;48.722;9.362;2022-12-18T09:11:47;-10.90;99.90
46590;DHT22;32313;48.722;9.362;2022-12-18T09:14:12;-10.90;99.90
46590;DHT22;32313;48.722;9.362;2022-12-18T09:16:38;-10.80;99.90
46590;DHT22;32313;48.722;9.362;2022-12-18T09:19:04;-10.10;99.90
46590;DHT22;32313;48.722;9.362;2022-12-18T09:21:33;-9.10;99.90
46590;DHT22;32313;48.722;9.362;2022-12-18T09:23:59;-8.80;99.90
46590;DHT22;32313;48.722;9.362;2022-12-18T09:26:25;-9.00;99.90
46590;DHT22;32313;48.722;9.362;2022-12-18T09:28:52;-8.20;99.90
46590;DHT22;32313;48.722;9.362;2022-12-18T09:31:19;-7.30;99.90
46590;DHT22;32313;48.722;9.362;2022-12-18T09:33:46;-6.90;99.90
46590;DHT22;32313;48.722;9.362;2022-12-18T09:36:14;-6.70;99.90
46590;DHT22;32313;48.722;9.362;2022-12-18T09:38:40;-6.30;99.90
46590;DHT22;32313;48.722;9.362;2022-12-18T09:41:44;-6.00;99.90
46590;DHT22;32313;48.722;9.362;2022-12-18T09:44:22;-5.60;99.90
46590;DHT22;32313;48.722;9.362;2022-12-18T09:49:41;-4.60;99.90
46590;DHT22;32313;48.722;9.362;2022-12-18T09:52:31;-4.20;99.90
46590;DHT22;32313;48.722;9.362;2022-12-18T09:58:06;-3.50;99.90
46590;DHT22;32313;48.722;9.362;2022-12-18T10:00:33;-3.70;99.90
46590;DHT22;32313;48.722;9.362;2022-12-18T10:03:03;-3.60;99.90
46590;DHT22;32313;48.722;9.362;2022-12-18T10:21:26;-6.40;99.90
46590;DHT22;32313;48.722;9.362;2022-12-18T10:27:18;-6.50;99.90
46590;DHT22;32313;48.722;9.362;2022-12-18T10:29:46;-5.40;99.90
46590;DHT22;32313;48.722;9.362;2022-12-18T10:32:21;-4.30;99.90
46590;DHT22;32313;48.722;9.362;2022-12-18T10:34:49;-3.60;99.90
46590;DHT22;32313;48.722;9.362;2022-12-18T10:37:21;-3.00;99.90
46590;DHT22;32313;48.722;9.362;2022-12-18T10:42:37;-1.80;99.90
46590;DHT22;32313;48.722;9.362;2022-12-18T10:45:23;-1.80;99.90
46590;DHT22;32313;48.722;9.362;2022-12-18T10:47:49;-1.60;99.90
46590;DHT22;32313;48.722;9.362;2022-12-18T10:50:35;-1.10;99.90
46590;DHT22;32313;48.722;9.362;2022-12-18T10:53:04;-0.70;99.90
46590;DHT22;32313;48.722;9.362;2022-12-18T10:55:34;-0.80;99.90
46590;DHT22;32313;48.722;9.362;2022-12-18T10:58:25;-0.80;99.90
46590;DHT22;32313;48.722;9.362;2022-12-18T11:01:14;-1.10;99.90
46590;DHT22;32313;48.722;9.362;2022-12-18T11:03:58;-1.10;99.90
46590;DHT22;32313;48.722;9.362;2022-12-18T11:06:25;-1.00;99.90
46590;DHT22;32313;48.722;9.362;2022-12-18T11:09:00;-0.90;99.90
46590;DHT22;32313;48.722;9.362;2022-12-18T11:11:26;-1.00;99.90
46590;DHT22;32313;48.722;9.362;2022-12-18T11:14:04;-1.40;99.90
46590;DHT22;32313;48.722;9.362;2022-12-18T11:16:36;-1.50;99.90
46590;DHT22;32313;48.722;9.362;2022-12-18T11:21:55;-0.80;99.90
46590;DHT22;32313;48.722;9.362;2022-12-18T11:24:33;-0.20;99.90
46590;DHT22;32313;48.722;9.362;2022-12-18T11:27:04;0.20;99.90
46590;DHT22;32313;48.722;9.362;2022-12-18T11:29:36;0.40;99.90
46590;DHT22;32313;48.722;9.362;2022-12-18T11:34:42;0.50;99.90
46590;DHT22;32313;48.722;9.362;2022-12-18T11:37:12;0.20;99.90
46590;DHT22;32313;48.722;9.362;2022-12-18T11:40:06;0.20;99.90
46590;DHT22;32313;48.722;9.362;2022-12-18T11:42:42;0.60;99.90
46590;DHT22;32313;48.722;9.362;2022-12-18T11:50:18;1.10;99.90
46590;DHT22;32313;48.722;9.362;2022-12-18T11:52:45;1.10;99.90
46590;DHT22;32313;48.722;9.362;2022-12-18T11:57:55;1.10;99.90
46590;DHT22;32313;48.722;9.362;2022-12-18T12:00:23;1.00;99.90
46590;DHT22;32313;48.722;9.362;2022-12-18T12:19:36;0.70;99.90
46590;DHT22;32313;48.722;9.362;2022-12-18T12:22:23;0.80;99.90
46590;DHT22;32313;48.722;9.362;2022-12-18T12:27:54;0.60;99.90
46590;DHT22;32313;48.722;9.362;2022-12-18T12:30:45;0.50;99.90
46590;DHT22;32313;48.722;9.362;2022-12-18T12:36:26;0.30;99.90
46590;DHT22;32313;48.722;9.362;2022-12-18T12:38:58;0.30;99.90
46590;DHT22;32313;48.722;9.362;2022-12-18T12:41:27;0.20;99.90
46590;DHT22;32313;48.722;9.362;2022-12-18T12:44:23;0.00;99.90
46590;DHT22;32313;48.722;9.362;2022-12-18T12:46:52;-0.50;99.90
46590;DHT22;32313;48.722;9.362;2022-12-18T12:49:27;-0.70;99.90
46590;DHT22;32313;48.722;9.362;2022-12-18T12:52:04;-0.70;99.90
46590;DHT22;32313;48.722;9.362;2022-12-18T12:54:32;-0.90;99.90
46590;DHT22;32313;48.722;9.362;2022-12-18T12:57:12;-1.00;99.90
46590;DHT22;32313;48.722;9.362;2022-12-18T12:59:50;-1.00;99.90
46590;DHT22;32313;48.722;9.362;2022-12-18T13:02:33;-1.20;99.90
46590;DHT22;32313;48.722;9.362;2022-12-18T13:08:03;-1.30;99.90
46590;DHT22;32313;48.722;9.362;2022-12-18T13:15:44;-1.00;99.90
46590;DHT22;32313;48.722;9.362;2022-12-18T13:18:21;-0.90;99.90
46590;DHT22;32313;48.722;9.362;2022-12-18T13:25:45;-0.60;99.90
46590;DHT22;32313;48.722;9.362;2022-12-18T13:28:14;-0.60;99.90
46590;DHT22;32313;48.722;9.362;2022-12-18T13:30:56;-0.60;99.90
46590;DHT22;32313;48.722;9.362;2022-12-18T13:38:33;-0.50;99.90
46590;DHT22;32313;48.722;9.362;2022-12-18T13:44:10;-0.50;99.90
46590;DHT22;32313;48.722;9.362;2022-12-18T13:46:46;-0.60;99.90
46590;DHT22;32313;48.722;9.362;2022-12-18T13:51:52;-0.90;99.90
46590;DHT22;32313;48.722;9.362;2022-12-18T13:54:43;-1.10;99.90
46590;DHT22;32313;48.722;9.362;2022-12-18T13:57:27;-1.10;99.90
46590;DHT22;32313;48.722;9.362;2022-12-18T13:59:54;-1.10;99.90
46590;DHT22;32313;48.722;9.362;2022-12-18T14:02:26;-1.10;99.90
46590;DHT22;32313;48.722;9.362;2022-12-18T14:04:53;-1.10;99.90
46590;DHT22;32313;48.722;9.362;2022-12-18T14:07:22;-1.10;99.90
46590;DHT22;32313;48.722;9.362;2022-12-18T14:09:56;-1.10;99.90
46590;DHT22;32313;48.722;9.362;2022-12-18T14:12:27;-1.10;99.90
46590;DHT22;32313;48.722;9.362;2022-12-18T14:20:22;-1.50;99.90
46590;DHT22;32313;48.722;9.362;2022-12-18T14:22:49;-1.60;99.90
46590;DHT22;32313;48.722;9.362;2022-12-18T14:25:21;-1.70;99.90
46590;DHT22;32313;48.722;9.362;2022-12-18T14:27:51;-1.90;99.90
46590;DHT22;32313;48.722;9.362;2022-12-18T14:30:38;-2.10;99.90
46590;DHT22;32313;48.722;9.362;2022-12-18T14:35:39;-2.50;99.90
46590;DHT22;32313;48.722;9.362;2022-12-18T14:41:15;-2.80;99.90
46590;DHT22;32313;48.722;9.362;2022-12-18T14:43:43;-2.90;99.90
46590;DHT22;32313;48.722;9.362;2022-12-18T14:46:38;-3.00;99.90
46590;DHT22;32313;48.722;9.362;2022-12-18T14:49:40;-3.20;99.90
46590;DHT22;32313;48.722;9.362;2022-12-18T14:52:13;-3.40;99.90
46590;DHT22;32313;48.722;9.362;2022-12-18T14:54:46;-3.50;99.90
46590;DHT22;32313;48.722;9.362;2022-12-18T14:57:22;-3.70;99.90
46590;DHT22;32313;48.722;9.362;2022-12-18T14:59:49;-3.80;99.90
46590;DHT22;32313;48.722;9.362;2022-12-18T15:02:23;-4.00;99.90
46590;DHT22;32313;48.722;9.362;2022-12-18T15:05:35;-4.10;99.90
46590;DHT22;32313;48.722;9.362;2022-12-18T15:08:01;-4.30;99.90
46590;DHT22;32313;48.722;9.362;2022-12-18T15:10:32;-4.50;99.90
46590;DHT22;32313;48.722;9.362;2022-12-18T15:15:44;-4.80;99.90
46590;DHT22;32313;48.722;9.362;2022-12-18T15:18:14;-4.90;99.90
46590;DHT22;32313;48.722;9.362;2022-12-18T15:20:49;-5.00;99.90
46590;DHT22;32313;48.722;9.362;2022-12-18T15:23:19;-5.00;99.90
46590;DHT22;32313;48.722;9.362;2022-12-18T15:25:57;-5.10;99.90
46590;DHT22;32313;48.722;9.362;2022-12-18T15:28:43;-5.20;99.90
46590;DHT22;32313;48.722;9.362;2022-12-18T15:33:37;-5.50;99.90
46590;DHT22;32313;48.722;9.362;2022-12-18T15:36:09;-5.60;99.90
46590;DHT22;32313;48.722;9.362;2022-12-18T15:38:35;-5.70;99.90
46590;DHT22;32313;48.722;9.362;2022-12-18T15:41:02;-5.80;99.90
46590;DHT22;32313;48.722;9.362;2022-12-18T15:43:30;-5.80;99.90
46590;DHT22;32313;48.722;9.362;2022-12-18T15:46:14;-5.90;99.90
46590;DHT22;32313;48.722;9.362;2022-12-18T15:48:48;-5.90;99.90
46590;DHT22;32313;48.722;9.362;2022-12-18T15:51:28;-6.00;99.90
46590;DHT22;32313;48.722;9.362;2022-12-18T15:53:56;-6.10;99.90
46590;DHT22;32313;48.722;9.362;2022-12-18T15:56:24;-6.10;99.90
46590;DHT22;32313;48.722;9.362;2022-12-18T15:59:17;-6.10;99.90
46590;DHT22;32313;48.722;9.362;2022-12-18T16:01:46;-6.20;99.90
46590;DHT22;32313;48.722;9.362;2022-12-18T16:04:13;-6.30;99.90
46590;DHT22;32313;48.722;9.362;2022-12-18T16:06:40;-6.40;99.90
46590;DHT22;32313;48.722;9.362;2022-12-18T16:09:06;-6.50;99.90
46590;DHT22;32313;48.722;9.362;2022-12-18T16:11:34;-6.60;99.90
46590;DHT22;32313;48.722;9.362;2022-12-18T16:16:46;-6.80;99.90
46590;DHT22;32313;48.722;9.362;2022-12-18T16:19:12;-6.80;99.90
46590;DHT22;32313;48.722;9.362;2022-12-18T16:21:38;-6.90;99.90
46590;DHT22;32313;48.722;9.362;2022-12-18T16:24:04;-6.90;99.90
46590;DHT22;32313;48.722;9.362;2022-12-18T16:26:33;-6.90;99.90
46590;DHT22;32313;48.722;9.362;2022-12-18T16:28:58;-6.80;99.90
46590;DHT22;32313;48.722;9.362;2022-12-18T16:31:24;-6.80;99.90
46590;DHT22;32313;48.722;9.362;2022-12-18T16:34:13;-6.80;99.90
46590;DHT22;32313;48.722;9.362;2022-12-18T16:36:39;-6.80;99.90
46590;DHT22;32313;48.722;9.362;2022-12-18T16:39:05;-6.80;99.90
46590;DHT22;32313;48.722;9.362;2022-12-18T16:41:31;-6.80;99.90
46590;DHT22;32313;48.722;9.362;2022-12-18T16:43:57;-6.80;99.90
46590;DHT22;32313;48.722;9.362;2022-12-18T16:46:23;-6.70;99.90
46590;DHT22;32313;48.722;9.362;2022-12-18T16:48:49;-6.80;99.90
46590;DHT22;32313;48.722;9.362;2022-12-18T16:51:15;-6.70;99.90
46590;DHT22;32313;48.722;9.362;2022-12-18T16:53:40;-6.80;99.90
46590;DHT22;32313;48.722;9.362;2022-12-18T16:56:06;-6.70;99.90
46590;DHT22;32313;48.722;9.362;2022-12-18T16:58:32;-6.70;99.90
46590;DHT22;32313;48.722;9.362;2022-12-18T17:00:58;-6.70;99.90
46590;DHT22;32313;48.722;9.362;2022-12-18T17:03:24;-6.70;99.90
46590;DHT22;32313;48.722;9.362;2022-12-18T17:05:52;-6.70;99.90
46590;DHT22;32313;48.722;9.362;2022-12-18T17:08:17;-6.70;99.90
46590;DHT22;32313;48.722;9.362;2022-12-18T17:10:43;-6.70;99.90
46590;DHT22;32313;48.722;9.362;2022-12-18T17:13:09;-6.60;99.90
46590;DHT22;32313;48.722;9.362;2022-12-18T17:15:35;-6.60;99.90
46590;DHT22;32313;48.722;9.362;2022-12-18T17:18:01;-6.50;99.90
46590;DHT22;32313;48.722;9.362;2022-12-18T17:20:26;-6.50;99.90
46590;DHT22;32313;48.722;9.362;2022-12-18T17:22:52;-6.50;99.90
46590;DHT22;32313;48.722;9.362;2022-12-18T17:25:18;-6.40;99.90
46590;DHT22;32313;48.722;9.362;2022-12-18T17:27:44;-6.30;99.90
46590;DHT22;32313;48.722;9.362;2022-12-18T17:30:10;-6.20;99.90
46590;DHT22;32313;48.722;9.362;2022-12-18T17:32:35;-6.10;99.90
46590;DHT22;32313;48.722;9.362;2022-12-18T17:35:01;-6.00;99.90
46590;DHT22;32313;48.722;9.362;2022-12-18T17:37:27;-6.00;99.90
46590;DHT22;32313;48.722;9.362;2022-12-18T17:39:53;-5.90;99.90
46590;DHT22;32313;48.722;9.362;2022-12-18T17:42:18;-5.90;99.90
46590;DHT22;32313;48.722;9.362;2022-12-18T17:44:44;-5.80;99.90
46590;DHT22;32313;48.722;9.362;2022-12-18T17:47:11;-5.80;99.90
46590;DHT22;32313;48.722;9.362;2022-12-18T17:49:37;-5.80;99.90
46590;DHT22;32313;48.722;9.362;2022-12-18T17:52:03;-5.80;99.90
46590;DHT22;32313;48.722;9.362;2022-12-18T17:54:29;-5.70;99.90
46590;DHT22;32313;48.722;9.362;2022-12-18T17:56:55;-5.70;99.90
46590;DHT22;32313;48.722;9.362;2022-12-18T17:59:21;-5.70;99.90
46590;DHT22;32313;48.722;9.362;2022-12-18T18:01:47;-5.70;99.90